Time;durP1;ratioP1;P1;durP2;ratioP2;P2;SDS_P1;SDS_P2;PMS_P1;PMS_P2;Temp;Humidity;BMP_temperature;BMP_pressure;BME280_temperature;BME280_humidity;BME280_pressure;Samples;Min_cycle;Max_cycle;Signal;HPM_P1;HPM_P2
2022/08/05 00:02:01;;;;;;;2.35;0.60;;;21.60;62.80;;;;;;5089883;28;20115;-81
2022/08/05 00:04:27;;;;;;;1.67;0.73;;;21.60;63.10;;;;;;5089661;28;20026;-82
2022/08/05 00:06:53;;;;;;;5.78;0.60;;;21.60;63.50;;;;;;5108989;28;20146;-83
2022/08/05 00:09:18;;;;;;;2.95;0.93;;;21.60;64.20;;;;;;5089825;28;20023;-83
2022/08/05 00:11:44;;;;;;;1.35;0.80;;;21.50;64.90;;;;;;5090023;28;20046;-82
2022/08/05 00:14:10;;;;;;;6.35;1.58;;;21.50;64.60;;;;;;5090356;28;20406;-82
2022/08/05 00:16:35;;;;;;;1.20;0.60;;;21.40;64.80;;;;;;5088270;28;20026;-82
2022/08/05 00:19:01;;;;;;;2.83;0.70;;;21.40;65.00;;;;;;5116382;27;20159;-83
2022/08/05 00:21:26;;;;;;;1.83;0.80;;;21.30;65.20;;;;;;5107941;27;20103;-82
2022/08/05 00:23:52;;;;;;;2.35;0.70;;;21.30;65.20;;;;;;5089590;28;20063;-83
2022/08/05 00:26:19;;;;;;;2.28;0.77;;;21.20;65.50;;;;;;5089627;28;20029;-83
2022/08/05 00:28:44;;;;;;;1.27;0.73;;;21.20;65.80;;;;;;5089983;28;20024;-81
2022/08/05 00:31:10;;;;;;;1.88;0.60;;;21.20;65.90;;;;;;5108161;28;20132;-82
2022/08/05 00:33:36;;;;;;;1.15;0.50;;;21.20;66.00;;;;;;5108126;28;20042;-85
2022/08/05 00:36:01;;;;;;;2.40;0.55;;;21.20;66.40;;;;;;5090292;28;20023;-84
2022/08/05 00:38:27;;;;;;;1.48;0.70;;;21.10;66.40;;;;;;5129449;27;20233;-83
2022/08/05 00:40:55;;;;;;;7.03;0.80;;;21.10;66.60;;;;;;5110913;27;20033;-84
2022/08/05 00:43:22;;;;;;;4.13;0.70;;;21.10;66.60;;;;;;5110729;27;20023;-83
2022/08/05 00:45:48;;;;;;;3.28;0.52;;;21.10;66.70;;;;;;5068660;28;20077;-81
2022/08/05 00:48:15;;;;;;;1.58;0.60;;;21.00;66.90;;;;;;5085877;28;20036;-84
2022/08/05 00:50:44;;;;;;;3.33;0.70;;;21.00;67.00;;;;;;5069793;28;20451;-85
2022/08/05 00:53:10;;;;;;;2.65;0.93;;;21.00;67.10;;;;;;5102721;28;20526;-84
2022/08/05 00:55:36;;;;;;;5.03;0.73;;;21.00;67.30;;;;;;5090131;28;20031;-83
2022/08/05 00:58:02;;;;;;;1.80;0.75;;;21.00;67.40;;;;;;5088954;28;20023;-82
2022/08/05 01:00:29;;;;;;;1.83;0.75;;;21.00;67.50;;;;;;5116864;27;20499;-83
2022/08/05 01:02:57;;;;;;;1.80;0.90;;;21.00;67.40;;;;;;5109446;27;20031;-82
2022/08/05 01:05:23;;;;;;;3.88;1.00;;;21.00;67.80;;;;;;5109726;28;20027;-82
2022/08/05 01:07:49;;;;;;;3.60;0.60;;;21.00;68.00;;;;;;5105472;28;20031;-83
2022/08/05 01:10:17;;;;;;;1.38;0.73;;;21.00;68.00;;;;;;5089329;28;20028;-85
2022/08/05 01:12:47;;;;;;;1.02;0.60;;;21.00;67.90;;;;;;5090266;28;20047;-83
2022/08/05 01:15:17;;;;;;;1.63;0.73;;;20.90;68.00;;;;;;5108430;28;20043;-83
2022/08/05 01:17:49;;;;;;;2.85;0.75;;;20.90;68.30;;;;;;5089216;28;20038;-83
2022/08/05 01:20:24;;;;;;;3.75;0.60;;;20.90;68.30;;;;;;5118705;28;20356;-85
2022/08/05 01:22:58;;;;;;;1.60;0.90;;;20.90;68.10;;;;;;5110249;28;20066;-83
2022/08/05 01:25:30;;;;;;;1.50;0.70;;;20.90;68.30;;;;;;5100482;28;20051;-83
2022/08/05 01:28:16;;;;;;;1.23;0.60;;;20.90;68.70;;;;;;5089472;28;20155;-83
2022/08/05 01:30:50;;;;;;;;;;;20.90;68.50;;;;;;5108926;28;20030;-84
2022/08/05 01:33:17;;;;;;;1.63;0.70;;;20.90;68.50;;;;;;5088703;28;19911;-83
2022/08/05 01:35:46;;;;;;;2.55;0.70;;;20.80;68.20;;;;;;5090181;28;20454;-84
2022/08/05 01:38:14;;;;;;;2.10;0.88;;;20.80;67.10;;;;;;5089845;28;20031;-82
2022/08/05 01:40:39;;;;;;;4.50;0.90;;;20.80;66.20;;;;;;5089772;28;20028;-82
2022/08/05 01:43:08;;;;;;;5.53;0.65;;;20.90;66.40;;;;;;5107798;28;20098;-83
2022/08/05 01:45:34;;;;;;;3.13;1.00;;;21.00;66.90;;;;;;5089218;28;20084;-85
2022/08/05 01:48:02;;;;;;;3.58;0.68;;;20.90;66.70;;;;;;5087521;28;20487;-84
2022/08/05 01:50:31;;;;;;;0.90;0.60;;;21.00;66.40;;;;;;5088513;28;20118;-83
2022/08/05 01:53:03;;;;;;;5.03;0.98;;;21.00;66.60;;;;;;5088626;28;20023;-83
2022/08/05 01:55:31;;;;;;;0.90;0.52;;;21.00;66.80;;;;;;5090309;28;20131;-83
2022/08/05 01:57:58;;;;;;;1.88;0.70;;;21.00;66.90;;;;;;5089615;28;20024;-83
2022/08/05 02:00:25;;;;;;;1.35;0.70;;;21.00;67.10;;;;;;5089578;28;20438;-84
2022/08/05 02:02:55;;;;;;;1.25;0.60;;;20.90;67.70;;;;;;5089633;28;20503;-83
2022/08/05 02:05:23;;;;;;;2.25;0.77;;;20.90;68.10;;;;;;5089809;28;20021;-83
2022/08/05 02:07:49;;;;;;;2.85;0.63;;;20.80;68.10;;;;;;5107596;28;20080;-83
2022/08/05 02:10:15;;;;;;;1.90;0.77;;;20.80;68.00;;;;;;5093449;28;20110;-85
2022/08/05 02:12:43;;;;;;;1.98;0.80;;;20.70;67.90;;;;;;5093476;28;20051;-84
2022/08/05 02:15:20;;;;;;;1.83;0.85;;;20.70;67.10;;;;;;5093222;28;20126;-83
2022/08/05 02:18:01;;;;;;;2.47;0.65;;;20.80;66.60;;;;;;5111201;28;20034;-84
2022/08/05 02:20:31;;;;;;;1.55;0.60;;;20.80;66.50;;;;;;5092960;28;20027;-83
2022/08/05 02:23:00;;;;;;;1.80;0.60;;;20.90;66.70;;;;;;5093064;28;20390;-83
2022/08/05 02:25:29;;;;;;;2.25;0.82;;;20.90;66.90;;;;;;5092863;28;20052;-84
2022/08/05 02:27:57;;;;;;;1.33;0.70;;;20.90;66.90;;;;;;5093164;28;20088;-83
2022/08/05 02:30:26;;;;;;;0.93;0.50;;;20.80;67.50;;;;;;5092557;28;20024;-84
2022/08/05 02:32:54;;;;;;;3.92;0.70;;;20.80;68.20;;;;;;5091591;28;20032;-82
2022/08/05 02:35:23;;;;;;;4.55;1.15;;;20.70;68.70;;;;;;5091442;28;20043;-82
2022/08/05 02:37:50;;;;;;;6.00;1.30;;;20.60;69.00;;;;;;5109904;28;20035;-82
2022/08/05 02:40:17;;;;;;;6.63;0.90;;;20.60;69.10;;;;;;5109202;28;20035;-82
2022/08/05 02:42:44;;;;;;;1.98;0.93;;;20.60;68.90;;;;;;5109970;28;20503;-82
2022/08/05 02:45:11;;;;;;;2.60;0.70;;;20.50;69.20;;;;;;5091711;28;20507;-83
2022/08/05 02:47:37;;;;;;;2.55;0.70;;;20.50;69.10;;;;;;5090868;28;20315;-82
2022/08/05 02:50:05;;;;;;;1.40;0.80;;;20.50;69.30;;;;;;5092433;28;20028;-83
2022/08/05 02:52:32;;;;;;;1.00;0.70;;;20.50;69.70;;;;;;5092133;28;20085;-84
2022/08/05 02:55:00;;;;;;;1.63;0.70;;;20.50;70.20;;;;;;5092856;28;20419;-84
2022/08/05 02:57:26;;;;;;;5.22;0.90;;;20.40;71.00;;;;;;5091922;28;20062;-83
2022/08/05 02:59:53;;;;;;;3.20;0.93;;;20.30;71.40;;;;;;5092026;28;20027;-82
2022/08/05 03:02:21;;;;;;;2.00;0.82;;;20.30;71.70;;;;;;5091388;28;20510;-83
2022/08/05 03:04:49;;;;;;;3.08;0.93;;;20.20;72.30;;;;;;5091531;28;20023;-82
2022/08/05 03:07:16;;;;;;;5.25;0.80;;;20.10;72.10;;;;;;5092373;28;20096;-84
2022/08/05 03:09:43;;;;;;;2.53;0.73;;;20.10;72.20;;;;;;5110620;28;20501;-83
2022/08/05 03:12:09;;;;;;;8.13;1.40;;;20.10;73.00;;;;;;5091644;28;20088;-84
2022/08/05 03:14:34;;;;;;;6.68;0.90;;;20.00;73.10;;;;;;5091825;28;20031;-84
2022/08/05 03:17:01;;;;;;;4.75;0.85;;;20.00;73.80;;;;;;5091197;28;20028;-83
2022/08/05 03:19:27;;;;;;;4.72;0.80;;;19.90;74.20;;;;;;5108910;28;20023;-85
2022/08/05 03:21:52;;;;;;;3.15;0.82;;;19.90;73.70;;;;;;5111233;28;20058;-85
2022/08/05 03:24:19;;;;;;;1.67;0.70;;;19.80;73.70;;;;;;5092743;28;20016;-84
2022/08/05 03:26:45;;;;;;;2.05;0.93;;;19.80;73.90;;;;;;5092493;28;20049;-83
2022/08/05 03:29:11;;;;;;;1.27;0.88;;;19.80;74.40;;;;;;5092016;28;20055;-83
2022/08/05 03:31:38;;;;;;;4.85;0.80;;;19.80;74.90;;;;;;5091643;28;20112;-84
2022/08/05 03:34:03;;;;;;;2.03;0.90;;;19.80;75.30;;;;;;5091292;28;20409;-84
2022/08/05 03:36:30;;;;;;;3.95;1.00;;;19.70;76.00;;;;;;5092154;28;20480;-85
2022/08/05 03:38:56;;;;;;;3.40;1.13;;;19.70;76.10;;;;;;5093100;28;20483;-83
2022/08/05 03:41:22;;;;;;;3.75;0.85;;;19.60;76.30;;;;;;5092247;28;20027;-84
2022/08/05 03:43:47;;;;;;;2.42;0.65;;;19.60;76.70;;;;;;5091475;28;20395;-84
2022/08/05 03:46:13;;;;;;;3.58;1.08;;;19.70;76.80;;;;;;5109908;28;20496;-84
2022/08/05 03:48:39;;;;;;;2.28;0.90;;;19.70;76.90;;;;;;5091569;28;20016;-82
2022/08/05 03:51:22;;;;;;;1.33;0.73;;;19.70;77.00;;;;;;5092151;28;20492;-84
2022/08/05 03:54:11;;;;;;;3.30;0.80;;;19.70;77.60;;;;;;5091610;28;20058;-84
2022/08/05 03:56:45;;;;;;;6.15;1.00;;;19.70;77.20;;;;;;5091960;28;20073;-84
2022/08/05 03:59:37;;;;;;;4.35;1.00;;;19.80;76.80;;;;;;5091428;28;20034;-84
2022/08/05 04:02:03;;;;;;;2.85;0.70;;;19.90;76.80;;;;;;5076521;28;20520;-81
2022/08/05 04:04:31;;;;;;;5.45;0.90;;;19.90;76.70;;;;;;5107714;28;20027;-84
2022/08/05 04:06:57;;;;;;;2.92;1.10;;;20.00;76.60;;;;;;5108198;28;20024;-83
2022/08/05 04:09:24;;;;;;;2.75;0.82;;;20.00;76.20;;;;;;5090479;28;20103;-83
2022/08/05 04:11:50;;;;;;;7.03;1.10;;;20.10;75.70;;;;;;5089208;28;20401;-83
2022/08/05 04:14:16;;;;;;;3.78;0.85;;;20.20;75.30;;;;;;5090159;28;20488;-83
2022/08/05 04:16:42;;;;;;;9.02;1.20;;;20.30;75.00;;;;;;5089312;28;20023;-82
2022/08/05 04:19:11;;;;;;;8.98;1.85;;;20.40;75.60;;;;;;5089958;28;20031;-82
2022/08/05 04:21:38;;;;;;;6.20;0.90;;;20.60;75.50;;;;;;5089585;28;20011;-82
2022/08/05 04:24:04;;;;;;;3.13;1.63;;;20.70;74.30;;;;;;5089916;28;20035;-83
2022/08/05 04:26:30;;;;;;;2.83;0.85;;;20.80;74.20;;;;;;5089877;28;20024;-84
2022/08/05 04:28:56;;;;;;;3.97;1.13;;;20.90;74.00;;;;;;5090037;28;20035;-82
2022/08/05 04:31:21;;;;;;;27.38;2.55;;;21.10;73.40;;;;;;5107522;28;20020;-83
2022/08/05 04:33:47;;;;;;;4.53;1.02;;;21.20;73.10;;;;;;5089127;28;20042;-83
2022/08/05 04:36:14;;;;;;;7.53;1.05;;;21.30;73.10;;;;;;5107901;28;20903;-84
2022/08/05 04:38:41;;;;;;;3.67;0.93;;;21.40;72.80;;;;;;5107442;28;20024;-83
2022/08/05 04:41:07;;;;;;;9.93;1.23;;;21.50;73.80;;;;;;5107276;28;20027;-83
2022/08/05 04:43:33;;;;;;;5.28;1.13;;;21.60;73.30;;;;;;5089380;28;20035;-82
2022/08/05 04:45:59;;;;;;;9.35;1.20;;;21.80;72.90;;;;;;5088830;28;20023;-83
2022/08/05 04:48:24;;;;;;;5.05;0.98;;;21.90;73.00;;;;;;5106801;28;20020;-83
2022/08/05 04:50:51;;;;;;;4.50;0.80;;;22.10;73.20;;;;;;5107202;28;20113;-83
2022/08/05 04:53:17;;;;;;;3.70;1.55;;;22.30;72.20;;;;;;5089211;28;20028;-82
2022/08/05 04:55:44;;;;;;;4.18;1.58;;;22.50;71.40;;;;;;5109507;27;20031;-83
2022/08/05 04:58:12;;;;;;;8.15;1.50;;;22.60;71.50;;;;;;5127768;27;20023;-84
2022/08/05 05:00:39;;;;;;;4.30;1.02;;;22.80;71.20;;;;;;5126216;27;20015;-83
2022/08/05 05:03:05;;;;;;;8.57;1.00;;;22.90;70.10;;;;;;5109135;27;20483;-82
2022/08/05 05:05:32;;;;;;;5.97;1.10;;;23.10;69.60;;;;;;5085469;28;20036;-82
2022/08/05 05:08:08;;;;;;;7.45;1.20;;;23.20;69.50;;;;;;5094283;28;20050;-81
2022/08/05 05:10:43;;;;;;;10.27;1.30;;;23.40;69.30;;;;;;5092821;28;20043;-81
2022/08/05 05:13:10;;;;;;;9.75;1.33;;;23.60;69.40;;;;;;5116724;27;20055;-82
2022/08/05 05:15:36;;;;;;;2.42;0.63;;;23.70;69.20;;;;;;5110953;27;20042;-82
2022/08/05 05:18:02;;;;;;;7.32;1.10;;;23.80;69.40;;;;;;5086319;27;20043;-83
2022/08/05 05:20:28;;;;;;;8.10;1.00;;;24.00;69.00;;;;;;5080626;28;20040;-82
2022/08/05 05:22:53;;;;;;;7.20;1.05;;;24.20;68.40;;;;;;5072576;28;20066;-83
2022/08/05 05:25:19;;;;;;;4.10;1.30;;;24.50;68.50;;;;;;5104512;27;20039;-82
2022/08/05 05:27:45;;;;;;;2.58;0.82;;;24.70;68.50;;;;;;5108871;27;20112;-80
2022/08/05 05:30:12;;;;;;;4.50;1.23;;;24.90;67.60;;;;;;5115240;27;20031;-80
2022/08/05 05:32:38;;;;;;;5.32;1.00;;;25.20;66.30;;;;;;5084052;28;20118;-80
2022/08/05 05:35:04;;;;;;;4.05;1.00;;;25.40;65.50;;;;;;5113778;27;20205;-79
2022/08/05 05:37:29;;;;;;;5.78;0.80;;;25.60;64.90;;;;;;5082525;27;20915;-80
2022/08/05 05:39:55;;;;;;;3.75;1.38;;;25.90;64.10;;;;;;5083951;28;20039;-81
2022/08/05 05:42:20;;;;;;;2.25;0.88;;;26.20;63.60;;;;;;5070608;28;20035;-82
2022/08/05 05:44:46;;;;;;;2.58;0.85;;;26.50;62.90;;;;;;5079357;28;20030;-82
2022/08/05 05:47:12;;;;;;;1.70;1.05;;;26.90;62.40;;;;;;5079222;28;20042;-82
2022/08/05 05:49:37;;;;;;;3.95;0.70;;;27.40;61.30;;;;;;5080358;28;20403;-82
2022/08/05 05:52:03;;;;;;;2.08;0.90;;;27.80;60.20;;;;;;5087102;28;20122;-82
2022/08/05 05:54:29;;;;;;;2.00;0.82;;;28.00;59.30;;;;;;5107000;27;20040;-82
2022/08/05 05:56:54;;;;;;;2.45;0.90;;;28.20;58.30;;;;;;5094106;28;20511;-82
2022/08/05 05:59:20;;;;;;;3.40;0.90;;;28.30;57.10;;;;;;5096004;28;20036;-82
2022/08/05 06:01:45;;;;;;;4.43;0.77;;;28.70;56.30;;;;;;5077336;27;20130;-81
2022/08/05 06:04:12;;;;;;;1.85;0.73;;;29.10;54.40;;;;;;5078376;28;20040;-81
2022/08/05 06:06:43;;;;;;;5.57;1.02;;;29.50;53.40;;;;;;5081709;27;20129;-82
2022/08/05 06:09:09;;;;;;;2.90;0.70;;;29.90;52.30;;;;;;5072504;28;20500;-83
2022/08/05 06:11:35;;;;;;;5.65;0.82;;;30.50;51.40;;;;;;5099260;27;20412;-82
2022/08/05 06:14:00;;;;;;;2.63;0.85;;;31.10;50.70;;;;;;5117468;27;20064;-81
2022/08/05 06:16:27;;;;;;;3.60;0.93;;;31.90;48.40;;;;;;5088430;28;20512;-81
2022/08/05 06:18:52;;;;;;;3.67;0.73;;;32.60;46.70;;;;;;5103001;28;20100;-81
2022/08/05 06:21:18;;;;;;;2.33;0.75;;;33.50;44.00;;;;;;5091685;28;20040;-82
2022/08/05 06:23:44;;;;;;;1.67;0.60;;;34.50;42.50;;;;;;5086535;28;20048;-82
2022/08/05 06:26:10;;;;;;;3.63;1.25;;;35.40;39.20;;;;;;5084937;28;20489;-82
2022/08/05 06:28:36;;;;;;;2.00;0.73;;;36.20;38.20;;;;;;5101108;27;20031;-82
2022/08/05 06:31:02;;;;;;;2.80;0.90;;;36.90;36.10;;;;;;5090180;28;20040;-82
2022/08/05 06:33:27;;;;;;;3.25;0.90;;;37.40;35.00;;;;;;5092028;27;20392;-83
2022/08/05 06:35:53;;;;;;;1.45;0.80;;;37.60;34.40;;;;;;5096564;27;20043;-82
2022/08/05 06:38:19;;;;;;;4.63;1.05;;;37.90;33.70;;;;;;5084099;28;20032;-82
2022/08/05 06:40:45;;;;;;;2.50;0.73;;;38.20;32.50;;;;;;5090464;27;20496;-82
2022/08/05 06:43:12;;;;;;;3.83;0.90;;;38.20;32.40;;;;;;5084769;27;20072;-80
2022/08/05 06:45:37;;;;;;;7.30;1.05;;;38.40;31.70;;;;;;5110565;27;20066;-80
2022/08/05 06:48:03;;;;;;;2.55;0.90;;;38.70;31.20;;;;;;5088628;27;20075;-80
2022/08/05 06:50:29;;;;;;;2.55;1.27;;;38.80;31.40;;;;;;5086908;27;20044;-80
2022/08/05 06:52:55;;;;;;;6.50;1.70;;;38.90;31.30;;;;;;5087638;27;20039;-80
2022/08/05 06:55:20;;;;;;;5.18;0.85;;;38.90;31.00;;;;;;5076590;28;20068;-79
2022/08/05 06:57:46;;;;;;;4.72;0.90;;;38.90;30.00;;;;;;5107008;27;20155;-80
2022/08/05 07:00:12;;;;;;;2.28;0.93;;;39.10;30.40;;;;;;5119732;27;20031;-80
2022/08/05 07:02:45;;;;;;;8.77;1.85;;;39.50;30.00;;;;;;5114811;27;20107;-79
2022/08/05 07:05:11;;;;;;;9.85;1.85;;;39.60;29.90;;;;;;5085888;28;20532;-81
2022/08/05 07:07:38;;;;;;;8.95;1.17;;;39.50;30.10;;;;;;5092490;27;20043;-80
2022/08/05 07:10:05;;;;;;;4.95;1.00;;;39.60;29.90;;;;;;5085488;28;20055;-80
2022/08/05 07:17:59;;;;;;;5.30;1.10;;;39.80;29.40;;;;;;5094034;28;20808;-79
2022/08/05 07:20:24;;;;;;;6.20;0.95;;;39.50;29.50;;;;;;5107740;28;20043;-78
2022/08/05 07:22:50;;;;;;;2.25;0.80;;;39.60;29.20;;;;;;5090073;28;20031;-79
2022/08/05 07:25:15;;;;;;;2.20;1.13;;;39.60;29.00;;;;;;5089238;28;20118;-80
2022/08/05 07:27:41;;;;;;;3.58;1.13;;;39.70;28.60;;;;;;5085511;28;20041;-79
2022/08/05 07:30:07;;;;;;;2.35;1.15;;;39.60;28.90;;;;;;5097074;28;20028;-79
2022/08/05 07:32:37;;;;;;;6.07;1.30;;;39.70;29.00;;;;;;5102576;28;20043;-80
2022/08/05 07:35:12;;;;;;;1.40;0.90;;;39.60;28.80;;;;;;5088099;28;20060;-81
2022/08/05 07:37:39;;;;;;;4.75;0.95;;;39.80;28.50;;;;;;5088471;28;20031;-82
2022/08/05 07:40:06;;;;;;;1.63;0.85;;;39.90;28.90;;;;;;5108008;28;20032;-82
2022/08/05 07:42:32;;;;;;;6.35;0.80;;;39.90;28.30;;;;;;5108215;28;20484;-81
2022/08/05 07:44:58;;;;;;;4.25;0.98;;;40.10;28.00;;;;;;5088812;28;20034;-81
2022/08/05 07:47:23;;;;;;;6.07;0.90;;;40.10;27.90;;;;;;5107826;28;20031;-81
2022/08/05 07:49:51;;;;;;;12.77;1.25;;;40.20;28.40;;;;;;5107598;28;20454;-82
2022/08/05 07:52:17;;;;;;;4.07;0.80;;;40.40;27.90;;;;;;5089090;28;20024;-81
2022/08/05 07:54:43;;;;;;;6.65;0.90;;;40.60;27.90;;;;;;5089768;28;20035;-81
2022/08/05 07:57:09;;;;;;;3.97;0.93;;;40.60;27.50;;;;;;5108080;28;20549;-81
2022/08/05 07:59:34;;;;;;;1.98;0.70;;;40.60;27.70;;;;;;5107011;28;20020;-81
2022/08/05 08:02:01;;;;;;;7.45;0.80;;;40.70;27.30;;;;;;5089994;28;20031;-81
2022/08/05 08:04:27;;;;;;;4.75;1.00;;;40.70;27.50;;;;;;5089378;28;20074;-81
2022/08/05 08:06:52;;;;;;;6.05;1.00;;;40.90;26.80;;;;;;5106769;28;20078;-82
2022/08/05 08:09:18;;;;;;;4.40;1.02;;;41.10;27.00;;;;;;5089341;28;20035;-81
2022/08/05 08:11:44;;;;;;;3.63;0.90;;;41.40;27.00;;;;;;5088669;28;20051;-81
2022/08/05 08:14:09;;;;;;;16.33;1.35;;;41.40;26.40;;;;;;5088858;28;20058;-81
2022/08/05 08:16:35;;;;;;;4.00;0.90;;;41.40;27.20;;;;;;5107217;28;20050;-81
2022/08/05 08:19:01;;;;;;;5.88;0.80;;;41.30;26.80;;;;;;5088779;28;20027;-81
2022/08/05 08:21:26;;;;;;;11.40;1.60;;;41.40;27.00;;;;;;5088933;28;20032;-80
2022/08/05 08:23:52;;;;;;;5.72;1.17;;;41.60;27.00;;;;;;5106550;28;20027;-80
2022/08/05 08:26:17;;;;;;;5.20;1.20;;;41.70;26.60;;;;;;5106615;28;20047;-80
2022/08/05 08:28:43;;;;;;;3.10;1.48;;;41.90;25.90;;;;;;5100227;27;20468;-81
2022/08/05 08:31:09;;;;;;;6.32;1.40;;;41.50;26.70;;;;;;5084414;28;20036;-81
2022/08/05 08:33:35;;;;;;;2.35;1.10;;;41.50;26.50;;;;;;5113966;27;20392;-81
2022/08/05 08:36:00;;;;;;;8.98;1.20;;;41.50;26.70;;;;;;5126426;27;20040;-80
2022/08/05 08:38:26;;;;;;;6.88;1.13;;;41.50;25.90;;;;;;5120273;27;20085;-80
2022/08/05 08:40:52;;;;;;;5.32;1.10;;;41.50;26.20;;;;;;5109658;27;20114;-81
2022/08/05 08:43:20;;;;;;;4.78;1.00;;;41.50;26.20;;;;;;5127329;27;20510;-81
2022/08/05 08:45:49;;;;;;;2.60;1.05;;;41.60;25.90;;;;;;5107817;27;20033;-79
2022/08/05 08:48:15;;;;;;;5.78;1.27;;;41.40;25.80;;;;;;5113015;27;20031;-80
2022/08/05 08:50:43;;;;;;;7.88;1.55;;;41.50;26.00;;;;;;5092195;28;20248;-79
2022/08/05 08:53:11;;;;;;;5.57;1.05;;;41.50;26.40;;;;;;5109731;27;20040;-81
2022/08/05 08:55:38;;;;;;;3.47;0.90;;;41.40;26.10;;;;;;5107335;27;20507;-80
2022/08/05 08:58:03;;;;;;;5.47;1.25;;;41.60;25.90;;;;;;5110378;27;20125;-80
2022/08/05 09:00:30;;;;;;;3.40;1.00;;;41.60;26.80;;;;;;5106216;28;20065;-81
2022/08/05 09:02:56;;;;;;;1.95;1.05;;;41.70;26.10;;;;;;5088071;28;20110;-81
2022/08/05 09:05:22;;;;;;;7.53;1.30;;;41.90;25.80;;;;;;5106549;28;20038;-80
2022/08/05 09:07:51;;;;;;;10.93;1.10;;;41.00;25.90;;;;;;5106139;28;20043;-80
2022/08/05 09:10:18;;;;;;;3.15;1.30;;;41.10;26.50;;;;;;5107012;28;20503;-80
2022/08/05 09:12:44;;;;;;;5.30;0.93;;;41.30;27.00;;;;;;5106174;28;20048;-81
2022/08/05 09:15:10;;;;;;;6.43;1.35;;;41.30;26.80;;;;;;5106217;28;20054;-81
2022/08/05 09:17:36;;;;;;;3.47;0.90;;;41.50;25.90;;;;;;5108911;28;20020;-81
2022/08/05 09:20:03;;;;;;;4.45;1.30;;;41.30;26.40;;;;;;5113384;28;20034;-80
2022/08/05 09:22:49;;;;;;;6.07;1.10;;;41.20;26.70;;;;;;5113178;28;20024;-80
2022/08/05 09:25:19;;;;;;;2.83;1.00;;;41.20;26.80;;;;;;5113341;28;20510;-80
2022/08/05 09:27:44;;;;;;;4.43;1.35;;;41.60;27.00;;;;;;5094269;28;20085;-80
2022/08/05 09:30:10;;;;;;;1.85;0.90;;;41.90;26.10;;;;;;5113094;28;20106;-80
2022/08/05 09:32:37;;;;;;;4.72;1.13;;;42.00;26.40;;;;;;5092751;28;20028;-80
2022/08/05 09:35:11;;;;;;;5.32;0.90;;;42.30;26.40;;;;;;5113113;28;20071;-80
2022/08/05 09:37:39;;;;;;;2.05;1.33;;;42.50;26.10;;;;;;5113479;28;20023;-80
2022/08/05 09:40:06;;;;;;;8.77;1.40;;;42.70;25.80;;;;;;5112794;28;20035;-80
2022/08/05 09:42:39;;;;;;;4.63;0.90;;;42.60;25.70;;;;;;5113061;28;20020;-79
2022/08/05 09:45:07;;;;;;;1.15;0.95;;;42.60;26.00;;;;;;5094386;28;20031;-80
2022/08/05 09:47:33;;;;;;;1.52;1.20;;;42.90;25.70;;;;;;5112044;28;20027;-80
2022/08/05 09:49:59;;;;;;;3.85;1.30;;;42.70;25.50;;;;;;5102037;28;20030;-80
2022/08/05 09:52:26;;;;;;;1.95;1.20;;;42.70;25.60;;;;;;5108849;28;20039;-80
2022/08/05 09:55:05;;;;;;;4.35;1.00;;;42.80;25.40;;;;;;5102170;28;20043;-80
2022/08/05 09:57:39;;;;;;;5.75;1.20;;;43.00;24.80;;;;;;5074421;28;20032;-81
2022/08/05 10:00:10;;;;;;;;;;;42.60;24.80;;;;;;5092446;28;20032;-80
2022/08/05 10:02:47;;;;;;;2.75;1.35;;;41.90;25.00;;;;;;5096980;28;20777;-80
2022/08/05 10:05:18;;;;;;;6.15;1.17;;;41.70;25.80;;;;;;5101697;28;20039;-80
2022/08/05 10:07:58;;;;;;;3.88;1.10;;;41.80;25.80;;;;;;5100946;28;20072;-80
2022/08/05 10:10:26;;;;;;;1.52;1.08;;;41.50;25.50;;;;;;5101560;28;20545;-80
2022/08/05 10:12:54;;;;;;;4.70;1.63;;;41.80;26.20;;;;;;5088933;28;20504;-81
2022/08/05 10:15:20;;;;;;;3.45;1.35;;;42.00;25.90;;;;;;5092744;28;20042;-81
2022/08/05 10:18:06;;;;;;;2.80;1.15;;;41.60;26.40;;;;;;5094090;28;20019;-80
2022/08/05 10:20:34;;;;;;;4.47;1.85;;;40.90;26.50;;;;;;5094868;28;20035;-80
2022/08/05 10:23:00;;;;;;;2.53;1.42;;;40.40;26.70;;;;;;5094685;28;20090;-80
2022/08/05 10:25:26;;;;;;;2.15;1.10;;;39.90;27.10;;;;;;5113021;28;20487;-81
2022/08/05 10:27:55;;;;;;;3.58;1.30;;;39.50;27.40;;;;;;5092969;28;20035;-80
2022/08/05 10:30:21;;;;;;;3.28;1.30;;;39.10;27.40;;;;;;5101628;28;20020;-80
2022/08/05 10:32:47;;;;;;;3.85;0.93;;;38.90;27.40;;;;;;5079942;28;20121;-81
2022/08/05 10:35:13;;;;;;;4.43;1.25;;;38.50;27.80;;;;;;5070947;28;20039;-81
2022/08/05 10:37:40;;;;;;;1.88;1.20;;;38.30;28.50;;;;;;5088622;28;20024;-80
2022/08/05 10:40:15;;;;;;;3.95;0.98;;;38.10;28.40;;;;;;5127964;27;20026;-80
2022/08/05 10:42:46;;;;;;;3.25;1.20;;;37.90;27.80;;;;;;5128005;27;20030;-80
2022/08/05 10:45:14;;;;;;;4.63;1.33;;;37.30;28.70;;;;;;5109364;28;20404;-81
2022/08/05 10:47:43;;;;;;;4.88;1.27;;;37.10;29.00;;;;;;5106350;28;20058;-81
2022/08/05 10:50:12;;;;;;;5.03;1.23;;;36.80;28.90;;;;;;5090648;28;20031;-80
2022/08/05 10:52:56;;;;;;;6.43;1.20;;;36.60;29.70;;;;;;5082103;28;20511;-80
2022/08/05 10:55:23;;;;;;;2.08;1.00;;;36.60;29.60;;;;;;5090950;28;20035;-80
2022/08/05 10:58:07;;;;;;;3.15;1.00;;;36.60;29.70;;;;;;5089881;28;20027;-81
2022/08/05 11:00:33;;;;;;;8.90;1.08;;;36.60;29.90;;;;;;5109388;28;20628;-81
2022/08/05 11:03:04;;;;;;;2.85;1.20;;;36.50;29.50;;;;;;5109188;28;20127;-79
2022/08/05 11:05:34;;;;;;;9.43;1.48;;;36.40;30.00;;;;;;5090842;28;20613;-81
2022/08/05 11:08:05;;;;;;;3.97;1.38;;;36.40;30.20;;;;;;5090101;28;20036;-80
2022/08/05 11:10:33;;;;;;;7.97;1.40;;;36.40;30.00;;;;;;5090441;28;20605;-80
2022/08/05 11:12:59;;;;;;;2.63;1.42;;;36.40;29.60;;;;;;5108874;28;20075;-81
2022/08/05 11:15:29;;;;;;;2.92;1.20;;;36.30;29.80;;;;;;5107971;28;20483;-81
2022/08/05 11:18:13;;;;;;;2.50;1.38;;;36.40;29.90;;;;;;5089911;28;20444;-80
2022/08/05 11:20:45;;;;;;;13.02;1.42;;;36.40;29.60;;;;;;5090862;28;20088;-80
2022/08/05 11:23:42;;;;;;;2.45;1.27;;;36.20;30.30;;;;;;5108777;28;20055;-80
2022/08/05 11:26:22;;;;;;;3.08;1.42;;;36.10;29.90;;;;;;5108304;28;20020;-80
2022/08/05 11:28:50;;;;;;;6.20;1.15;;;36.10;30.10;;;;;;5090131;28;20063;-81
2022/08/05 11:31:16;;;;;;;6.30;1.20;;;36.00;29.30;;;;;;5109608;28;20024;-80
2022/08/05 11:33:47;;;;;;;3.80;1.08;;;35.70;29.70;;;;;;5090466;28;20039;-80
2022/08/05 11:36:18;;;;;;;5.20;1.30;;;35.70;30.80;;;;;;5108918;28;20032;-81
2022/08/05 11:38:44;;;;;;;8.20;1.30;;;35.80;30.40;;;;;;5108078;28;20039;-80
2022/08/05 11:41:15;;;;;;;4.10;1.10;;;35.80;29.40;;;;;;5107562;28;20396;-80
2022/08/05 11:44:02;;;;;;;2.70;0.80;;;35.60;30.00;;;;;;5090074;28;20016;-81
2022/08/05 11:46:28;;;;;;;3.22;1.17;;;35.60;30.10;;;;;;5108157;28;20036;-81
2022/08/05 11:48:55;;;;;;;3.30;1.05;;;35.50;30.20;;;;;;5089952;28;20351;-80
2022/08/05 11:51:21;;;;;;;2.72;1.08;;;35.50;30.10;;;;;;5108350;28;20034;-81
2022/08/05 11:53:47;;;;;;;4.85;1.05;;;35.50;30.60;;;;;;5108111;28;20081;-79
2022/08/05 11:56:13;;;;;;;4.18;1.30;;;35.60;30.60;;;;;;5107575;28;20023;-81
2022/08/05 11:58:41;;;;;;;3.53;1.08;;;35.60;30.60;;;;;;5107475;28;20130;-81
2022/08/05 12:01:19;;;;;;;7.70;1.15;;;35.70;30.10;;;;;;5107772;28;20529;-81
2022/08/05 12:03:51;;;;;;;5.57;1.15;;;35.90;30.00;;;;;;5107837;28;20119;-82
2022/08/05 12:06:21;;;;;;;6.50;1.33;;;35.70;29.80;;;;;;5089790;28;20023;-82
2022/08/05 12:08:49;;;;;;;3.05;1.10;;;35.70;30.70;;;;;;5089378;28;20081;-81
2022/08/05 12:11:19;;;;;;;2.08;1.13;;;35.70;30.70;;;;;;5107626;28;20027;-82
2022/08/05 12:14:04;;;;;;;8.05;0.90;;;35.80;30.40;;;;;;5089057;28;20051;-82
2022/08/05 12:16:34;;;;;;;3.45;1.00;;;35.80;30.10;;;;;;5089023;28;20027;-81
2022/08/05 12:19:01;;;;;;;3.47;1.15;;;35.80;29.80;;;;;;5107490;28;20026;-81
2022/08/05 12:21:35;;;;;;;4.38;1.30;;;35.80;30.00;;;;;;5088766;28;20038;-82
2022/08/05 12:24:13;;;;;;;5.53;1.30;;;35.90;29.80;;;;;;5088683;28;20032;-81
2022/08/05 12:26:46;;;;;;;3.83;1.20;;;35.90;30.20;;;;;;5106851;28;20116;-81
2022/08/05 12:29:19;;;;;;;2.65;1.25;;;35.80;29.60;;;;;;5107199;28;20507;-81
2022/08/05 12:31:48;;;;;;;2.40;1.20;;;35.70;29.90;;;;;;5107030;28;20015;-81
2022/08/05 12:34:15;;;;;;;4.68;1.20;;;35.80;30.00;;;;;;5106918;28;20039;-80
2022/08/05 12:36:43;;;;;;;3.65;1.50;;;35.80;30.00;;;;;;5088928;28;20039;-81
2022/08/05 12:39:09;;;;;;;1.40;0.95;;;35.80;29.90;;;;;;5106838;28;20437;-82
2022/08/05 12:41:37;;;;;;;4.35;0.90;;;35.90;30.10;;;;;;5106800;28;20508;-82
2022/08/05 12:44:08;;;;;;;3.33;1.10;;;35.90;30.10;;;;;;5088895;28;20027;-82
2022/08/05 12:46:37;;;;;;;11.18;1.80;;;35.90;29.60;;;;;;5088937;28;20036;-82
2022/08/05 12:49:12;;;;;;;8.48;1.13;;;35.70;30.10;;;;;;5088415;28;20034;-82
2022/08/05 12:51:56;;;;;;;2.72;1.00;;;35.70;30.00;;;;;;5107143;28;20027;-82
2022/08/05 12:54:28;;;;;;;3.10;1.10;;;35.70;30.00;;;;;;5088872;28;20039;-82
2022/08/05 12:56:59;;;;;;;2.13;0.90;;;35.70;29.60;;;;;;5088286;28;20102;-82
2022/08/05 12:59:30;;;;;;;2.25;1.10;;;35.70;30.10;;;;;;5088702;28;20035;-81